Time;durP1;ratioP1;P1;durP2;ratioP2;P2;SDS_P1;SDS_P2;PMS_P1;PMS_P2;Temp;Humidity;BMP_temperature;BMP_pressure;BME280_temperature;BME280_humidity;BME280_pressure;Samples;Min_cycle;Max_cycle;Signal;HPM_P1;HPM_P2
2022/09/03 00:00:13;;;;;;;;;;;18.20;97.50;;;;;;5036036;28;20407;-74
2022/09/03 00:02:44;;;;;;;;;;;18.20;97.60;;;;;;5001916;28;19925;-74
2022/09/03 00:05:12;;;;;;;;;;;18.20;97.50;;;;;;5003243;28;19932;-74
2022/09/03 00:07:38;;;;;;;;;;;18.10;97.70;;;;;;5002746;28;19926;-74
2022/09/03 00:10:07;;;;;;;;;;;18.10;98.10;;;;;;5004311;28;19952;-74
2022/09/03 00:12:38;;;;;;;;;;;18.10;97.60;;;;;;5002700;28;19932;-74
2022/09/03 00:15:12;;;;;;;;;;;18.10;98.20;;;;;;5004042;28;20384;-74
2022/09/03 00:17:39;;;;;;;;;;;18.10;98.10;;;;;;5002832;28;19952;-73
2022/09/03 00:20:05;;;;;;;;;;;18.10;97.80;;;;;;5004251;28;19925;-74
2022/09/03 00:22:33;;;;;;;;;;;18.00;97.90;;;;;;5004189;28;19948;-74
2022/09/03 00:25:01;;;;;;;;;;;18.00;97.90;;;;;;5003551;28;19926;-74
2022/09/03 00:27:27;;;;;;;;;;;18.00;98.10;;;;;;5004188;28;19925;-74
2022/09/03 00:29:53;;;;;;;;;;;18.00;98.30;;;;;;5003356;28;20335;-73
2022/09/03 00:32:22;;;;;;;;;;;18.00;97.70;;;;;;5001490;28;19936;-75
2022/09/03 00:34:49;;;;;;;;;;;17.90;97.70;;;;;;5003908;28;19929;-74
2022/09/03 00:37:15;;;;;;;;;;;17.90;98.50;;;;;;5004207;28;20260;-74
2022/09/03 00:39:40;;;;;;;;;;;17.90;98.30;;;;;;5004030;28;19925;-74
2022/09/03 00:42:09;;;;;;;;;;;17.90;98.60;;;;;;5003361;28;19929;-74
2022/09/03 00:44:34;;;;;;;;;;;17.80;98.50;;;;;;5004043;28;19984;-74
2022/09/03 00:47:23;;;;;;;;;;;17.80;97.80;;;;;;5003545;28;20661;-74
2022/09/03 00:50:04;;;;;;;;;;;17.80;98.30;;;;;;4996812;28;20347;-74
2022/09/03 00:52:52;;;;;;;;;;;17.80;98.50;;;;;;5002139;28;19925;-74
2022/09/03 00:55:26;;;;;;;;;;;17.70;98.40;;;;;;5004117;28;19933;-74
2022/09/03 00:57:55;;;;;;;;;;;17.70;98.20;;;;;;5003373;28;19929;-74
2022/09/03 01:00:21;;;;;;;;;;;17.70;98.90;;;;;;5003563;28;19926;-74
2022/09/03 01:02:50;;;;;;;;;;;17.70;98.50;;;;;;5002396;28;19932;-74
2022/09/03 01:05:17;;;;;;;;;;;17.70;98.50;;;;;;5003793;28;19925;-74
2022/09/03 01:07:47;;;;;;;;;;;17.60;99.10;;;;;;5034199;28;20427;-74
2022/09/03 01:10:29;;;;;;;;;;;17.60;98.90;;;;;;5003523;28;20380;-74
2022/09/03 01:13:04;;;;;;;;;;;17.60;98.70;;;;;;5000065;23;20383;-74
2022/09/03 01:15:45;;;;;;;;;;;17.60;98.70;;;;;;4964229;28;19992;-74
2022/09/03 01:18:20;;;;;;;;;;;17.60;99.20;;;;;;4964367;28;19931;-74
2022/09/03 01:20:45;;;;;;;;;;;17.50;98.10;;;;;;4964530;28;19926;-74
2022/09/03 01:23:34;;;;;;;;;;;17.50;99.00;;;;;;4964218;28;19926;-74
2022/09/03 01:26:21;;;;;;;;;;;17.50;98.70;;;;;;4963905;28;19926;-74
2022/09/03 01:29:10;;;;;;;;;;;17.50;98.90;;;;;;4964277;28;19927;-74
2022/09/03 01:31:52;;;;;;;;;;;17.50;99.30;;;;;;4963822;28;19981;-74
2022/09/03 01:34:29;;;;;;;;;;;17.40;99.10;;;;;;4963216;28;19941;-74
2022/09/03 01:37:04;;;;;;;;;;;17.40;99.10;;;;;;4964744;28;20336;-74
2022/09/03 01:39:40;;;;;;;;;;;17.40;99.40;;;;;;4964154;28;20368;-74
2022/09/03 01:42:15;;;;;;;;;;;17.40;99.60;;;;;;4979145;28;19926;-74
2022/09/03 01:44:47;;;;;;;;;;;17.40;99.10;;;;;;4962758;28;19922;-74
2022/09/03 01:47:21;;;;;;;;;;;17.40;99.00;;;;;;4963266;28;19926;-74
2022/09/03 01:49:56;;;;;;;;;;;17.30;99.00;;;;;;4964028;28;20348;-74
2022/09/03 01:52:28;;;;;;;;;;;17.30;99.20;;;;;;4964564;28;20292;-74
2022/09/03 01:55:00;;;;;;;;;;;17.30;99.10;;;;;;4964861;28;20211;-74
2022/09/03 01:57:48;;;;;;;;;;;17.30;99.80;;;;;;4979630;28;19926;-74
2022/09/03 02:00:13;;;;;;;;;;;17.20;99.60;;;;;;4962931;28;19933;-74
2022/09/03 02:02:42;;;;;;;;;;;17.20;99.80;;;;;;4962773;28;19933;-74
2022/09/03 02:05:13;;;;;;;;;;;17.20;99.90;;;;;;4964210;28;19922;-74
2022/09/03 02:07:46;;;;;;;;;;;17.20;99.90;;;;;;4963928;28;20395;-74
2022/09/03 02:10:14;;;;;;;;;;;17.20;99.90;;;;;;4963953;28;19918;-74
2022/09/03 02:12:41;;;;;;;;;;;17.10;99.90;;;;;;4963805;28;19930;-74
2022/09/03 02:15:12;;;;;;;;;;;17.10;99.90;;;;;;4963455;28;19995;-74
2022/09/03 02:17:39;;;;;;;;;;;17.10;99.90;;;;;;4962698;28;20459;-73
2022/09/03 02:20:07;;;;;;;;;;;17.10;99.90;;;;;;4964263;28;19962;-74
2022/09/03 02:22:34;;;;;;;;;;;17.10;99.90;;;;;;4962688;28;20413;-74
2022/09/03 02:25:00;;;;;;;;;;;17.10;99.90;;;;;;4965870;28;20021;-73
2022/09/03 02:27:25;;;;;;;;;;;17.10;99.90;;;;;;4966129;28;19981;-74
2022/09/03 02:29:51;;;;;;;;;;;17.10;99.90;;;;;;4965195;28;20308;-74
2022/09/03 02:32:17;;;;;;;;;;;17.00;99.90;;;;;;4966474;28;20280;-74
2022/09/03 02:34:42;;;;;;;;;;;17.00;99.90;;;;;;4967090;28;20439;-74
2022/09/03 02:37:15;;;;;;;;;;;17.00;99.90;;;;;;4965615;28;20371;-74
2022/09/03 02:39:41;;;;;;;;;;;17.00;99.90;;;;;;4966703;28;20377;-74
2022/09/03 02:42:08;;;;;;;;;;;17.00;99.90;;;;;;4966967;28;19985;-74
2022/09/03 02:44:36;;;;;;;;;;;17.00;99.90;;;;;;4966915;28;19930;-74
2022/09/03 02:47:03;;;;;;;;;;;17.00;99.90;;;;;;4966302;28;19926;-74
2022/09/03 02:49:28;;;;;;;;;;;16.90;99.90;;;;;;4966866;28;19933;-74
2022/09/03 02:51:59;;;;;;;;;;;16.90;99.90;;;;;;4967460;28;19934;-74
2022/09/03 02:54:25;;;;;;;;;;;16.90;99.90;;;;;;4981834;28;19934;-74
2022/09/03 02:56:50;;;;;;;;;;;16.90;99.90;;;;;;4966572;28;20114;-74
2022/09/03 02:59:16;;;;;;;;;;;16.90;99.90;;;;;;4966679;28;19926;-74
2022/09/03 03:01:42;;;;;;;;;;;16.90;99.90;;;;;;4966968;28;19926;-74
2022/09/03 03:04:07;;;;;;;;;;;16.80;99.90;;;;;;4965480;28;20503;-74
2022/09/03 03:06:33;;;;;;;;;;;16.80;99.90;;;;;;4966640;28;20407;-74
2022/09/03 03:08:59;;;;;;;;;;;16.80;99.90;;;;;;4966608;28;19926;-74
2022/09/03 03:11:26;;;;;;;;;;;16.70;99.90;;;;;;4967158;28;19952;-74
2022/09/03 03:13:51;;;;;;;;;;;16.70;99.90;;;;;;4966037;28;19926;-74
2022/09/03 03:16:17;;;;;;;;;;;16.70;99.90;;;;;;4966512;28;20063;-74
2022/09/03 03:18:45;;;;;;;;;;;16.70;99.90;;;;;;4965066;28;20013;-74
2022/09/03 03:21:12;;;;;;;;;;;16.70;99.90;;;;;;4966444;28;19949;-74
2022/09/03 03:23:38;;;;;;;;;;;16.70;99.90;;;;;;4965871;28;19925;-74
2022/09/03 03:26:04;;;;;;;;;;;16.70;99.90;;;;;;4966575;28;19981;-74
2022/09/03 03:28:32;;;;;;;;;;;16.70;99.90;;;;;;4965937;28;19933;-74
2022/09/03 03:31:03;;;;;;;;;;;16.60;99.90;;;;;;4967072;28;19926;-74
2022/09/03 03:33:29;;;;;;;;;;;16.70;99.90;;;;;;4965473;28;20512;-74
2022/09/03 03:35:54;;;;;;;;;;;16.60;99.90;;;;;;4964299;28;19926;-74
2022/09/03 03:38:19;;;;;;;;;;;16.60;99.90;;;;;;4964272;28;19926;-74
2022/09/03 03:40:45;;;;;;;;;;;16.60;99.90;;;;;;4964918;28;19926;-74
2022/09/03 03:43:11;;;;;;;;;;;16.50;99.90;;;;;;4965714;28;20288;-74
2022/09/03 03:45:36;;;;;;;;;;;16.60;99.90;;;;;;4965934;28;20061;-74
2022/09/03 03:48:02;;;;;;;;;;;16.60;99.90;;;;;;4964576;28;20410;-74
2022/09/03 03:50:27;;;;;;;;;;;16.50;99.90;;;;;;4965572;28;19932;-73
2022/09/03 03:52:53;;;;;;;;;;;16.50;99.90;;;;;;4965439;28;19922;-74
2022/09/03 03:55:18;;;;;;;;;;;16.50;99.90;;;;;;4966156;28;20282;-74
2022/09/03 03:57:44;;;;;;;;;;;16.50;99.90;;;;;;4965675;28;19925;-74
2022/09/03 04:00:10;;;;;;;;;;;16.50;99.90;;;;;;4965287;28;20519;-74
2022/09/03 04:02:35;;;;;;;;;;;16.50;99.90;;;;;;4964136;28;19926;-74
2022/09/03 04:05:01;;;;;;;;;;;16.50;99.90;;;;;;4965138;28;20017;-74
2022/09/03 04:07:26;;;;;;;;;;;16.50;99.90;;;;;;4981184;28;19949;-74
2022/09/03 04:09:51;;;;;;;;;;;16.50;99.90;;;;;;4979898;28;19922;-74
2022/09/03 04:12:18;;;;;;;;;;;16.50;99.90;;;;;;4963804;28;19926;-74
2022/09/03 04:14:43;;;;;;;;;;;16.50;99.90;;;;;;4965036;28;19926;-74
2022/09/03 04:17:09;;;;;;;;;;;16.50;99.90;;;;;;4964626;28;19926;-74
2022/09/03 04:19:34;;;;;;;;;;;16.50;99.90;;;;;;4979819;28;19933;-74
2022/09/03 04:22:00;;;;;;;;;;;16.50;99.90;;;;;;4962970;28;19926;-74
2022/09/03 04:24:26;;;;;;;;;;;16.50;99.90;;;;;;4965604;28;19930;-74
2022/09/03 04:26:52;;;;;;;;;;;16.40;99.90;;;;;;4965135;28;19926;-74
2022/09/03 04:29:18;;;;;;;;;;;16.50;99.90;;;;;;4964980;28;19925;-74
2022/09/03 04:32:51;;;;;;;;;;;16.50;99.90;;;;;;4963920;28;19926;-74
2022/09/03 04:34:29;;;;;;;;;;;16.50;99.90;;;;;;4963918;28;20347;-74
2022/09/03 04:36:56;;;;;;;;;;;16.50;99.90;;;;;;4965391;28;19926;-74
2022/09/03 04:39:22;;;;;;;;;;;16.40;99.90;;;;;;4964942;28;19929;-74
2022/09/03 04:41:47;;;;;;;;;;;16.40;99.90;;;;;;4964652;28;20207;-74
2022/09/03 04:44:13;;;;;;;;;;;16.40;99.90;;;;;;4963491;28;20000;-74
2022/09/03 04:46:39;;;;;;;;;;;16.40;99.90;;;;;;4963388;28;20288;-74
2022/09/03 04:49:08;;;;;;;;;;;16.40;99.90;;;;;;4964499;28;20017;-74
2022/09/03 04:51:37;;;;;;;;;;;16.30;99.90;;;;;;4950646;28;19922;-74
2022/09/03 04:54:02;;;;;;;;;;;16.40;99.90;;;;;;4964532;28;19930;-74
2022/09/03 04:56:31;;;;;;;;;;;16.40;99.90;;;;;;4965816;28;20061;-74
2022/09/03 04:59:04;;;;;;;;;;;16.40;99.90;;;;;;4964656;28;19985;-74
2022/09/03 05:01:30;;;;;;;;;;;16.40;99.90;;;;;;4962273;28;20770;-74
2022/09/03 05:03:57;;;;;;;;;;;16.30;99.90;;;;;;4963935;28;19932;-74
2022/09/03 05:06:24;;;;;;;;;;;16.30;99.90;;;;;;4964792;28;19926;-74
2022/09/03 05:08:51;;;;;;;;;;;16.30;99.90;;;;;;4964643;28;20364;-74
2022/09/03 05:11:26;;;;;;;;;;;16.30;99.90;;;;;;4963647;28;19926;-73
2022/09/03 05:13:53;;;;;;;;;;;16.30;99.90;;;;;;4964465;28;20404;-74
2022/09/03 05:16:18;;;;;;;;;;;16.30;99.90;;;;;;4963883;28;20000;-74
2022/09/03 05:18:45;;;;;;;;;;;16.30;99.90;;;;;;4963092;28;19934;-74
2022/09/03 05:21:15;;;;;;;;;;;16.30;99.90;;;;;;4963991;28;19926;-74
2022/09/03 05:23:42;;;;;;;;;;;16.30;99.90;;;;;;4964288;28;19930;-74
2022/09/03 05:26:08;;;;;;;;;;;16.30;99.90;;;;;;4964004;28;19953;-74
2022/09/03 05:28:35;;;;;;;;;;;16.30;99.90;;;;;;4963695;28;20013;-74
2022/09/03 05:31:01;;;;;;;;;;;16.20;99.90;;;;;;4964434;28;20639;-74
2022/09/03 05:33:27;;;;;;;;;;;16.20;99.90;;;;;;4964053;28;19922;-74
2022/09/03 05:35:54;;;;;;;;;;;16.20;99.90;;;;;;4963489;28;19973;-74
2022/09/03 05:38:19;;;;;;;;;;;16.20;99.90;;;;;;4964569;28;20013;-74
2022/09/03 05:40:45;;;;;;;;;;;16.20;99.90;;;;;;4963327;28;20562;-74
2022/09/03 05:43:10;;;;;;;;;;;16.20;99.90;;;;;;4964507;28;19926;-74
2022/09/03 05:45:36;;;;;;;;;;;16.30;99.90;;;;;;4963943;28;20361;-74
2022/09/03 05:48:02;;;;;;;;;;;16.20;99.90;;;;;;4963454;28;19933;-74
2022/09/03 05:50:27;;;;;;;;;;;16.30;99.90;;;;;;4964492;28;19929;-74
2022/09/03 05:52:52;;;;;;;;;;;16.30;99.90;;;;;;4963890;28;19930;-74
2022/09/03 05:55:18;;;;;;;;;;;16.20;99.90;;;;;;4964140;28;20308;-74
2022/09/03 05:57:44;;;;;;;;;;;16.20;99.90;;;;;;4963613;28;19922;-74
2022/09/03 06:00:10;;;;;;;;;;;16.20;99.90;;;;;;4966847;28;19926;-74
2022/09/03 06:02:36;;;;;;;;;;;16.30;99.90;;;;;;4966813;28;20592;-74
2022/09/03 06:05:01;;;;;;;;;;;16.20;99.90;;;;;;4967865;28;19960;-74
2022/09/03 06:07:27;;;;;;;;;;;16.30;99.90;;;;;;4968014;28;19926;-74
2022/09/03 06:09:53;;;;;;;;;;;16.30;99.90;;;;;;4967774;28;20377;-74
2022/09/03 06:12:18;;;;;;;;;;;16.20;99.90;;;;;;4967176;28;20312;-74
2022/09/03 06:14:44;;;;;;;;;;;16.20;99.90;;;;;;4967143;28;19930;-74
2022/09/03 06:17:11;;;;;;;;;;;16.20;99.90;;;;;;4965796;28;19949;-73
2022/09/03 06:19:37;;;;;;;;;;;16.20;99.90;;;;;;4967562;28;19926;-74
2022/09/03 06:22:02;;;;;;;;;;;16.20;99.90;;;;;;4967289;28;19933;-74
2022/09/03 06:24:28;;;;;;;;;;;16.20;99.90;;;;;;4967483;28;19926;-74
2022/09/03 06:26:57;;;;;;;;;;;16.20;99.90;;;;;;4966652;28;19927;-74
2022/09/03 06:29:22;;;;;;;;;;;16.20;99.90;;;;;;4963972;28;19930;-74
2022/09/03 06:31:49;;;;;;;;;;;16.20;99.90;;;;;;4965456;28;20449;-73
2022/09/03 06:34:17;;;;;;;;;;;16.30;99.90;;;;;;4966995;28;19926;-73
2022/09/03 06:36:42;;;;;;;;;;;16.30;99.90;;;;;;4966214;28;20430;-74
2022/09/03 06:39:08;;;;;;;;;;;16.30;99.90;;;;;;4966591;28;19926;-73
2022/09/03 06:41:34;;;;;;;;;;;16.30;99.90;;;;;;4964732;28;19945;-75
2022/09/03 06:44:04;;;;;;;;;;;16.30;99.90;;;;;;4967358;28;19933;-74
2022/09/03 06:46:30;;;;;;;;;;;16.40;99.90;;;;;;4965871;28;19926;-74
2022/09/03 06:48:56;;;;;;;;;;;16.40;99.90;;;;;;4982716;28;19930;-73
2022/09/03 06:51:22;;;;;;;;;;;16.40;99.90;;;;;;4966888;28;19936;-74
2022/09/03 06:53:49;;;;;;;;;;;16.50;99.90;;;;;;4965698;28;20675;-73
2022/09/03 06:56:16;;;;;;;;;;;16.40;99.90;;;;;;4964926;28;19926;-73
2022/09/03 06:58:43;;;;;;;;;;;16.50;99.90;;;;;;4973151;28;20009;-73
2022/09/03 07:01:16;;;;;;;;;;;16.50;99.90;;;;;;4965869;28;19927;-73
2022/09/03 07:03:42;;;;;;;;;;;16.50;99.90;;;;;;4967067;28;19926;-73
2022/09/03 07:06:09;;;;;;;;;;;16.50;99.90;;;;;;4981474;28;20397;-73
2022/09/03 07:08:35;;;;;;;;;;;16.60;99.90;;;;;;4962586;28;20372;-73
2022/09/03 07:11:08;;;;;;;;;;;16.70;99.90;;;;;;4958017;28;19932;-75
2022/09/03 07:13:34;;;;;;;;;;;16.70;99.90;;;;;;4961436;28;19992;-73
2022/09/03 07:16:00;;;;;;;;;;;16.70;99.90;;;;;;4965846;28;20606;-73
2022/09/03 07:18:28;;;;;;;;;;;16.70;99.90;;;;;;4965478;28;19933;-73
2022/09/03 07:21:00;;;;;;;;;;;16.80;99.90;;;;;;4965849;28;20080;-73
2022/09/03 07:23:27;;;;;;;;;;;16.80;99.90;;;;;;4961395;28;19954;-72
2022/09/03 07:25:54;;;;;;;;;;;16.80;99.90;;;;;;4953783;28;19934;-73
2022/09/03 07:28:19;;;;;;;;;;;16.80;99.90;;;;;;4965221;28;19980;-72
2022/09/03 07:30:45;;;;;;;;;;;16.80;99.90;;;;;;4965482;28;19930;-72
2022/09/03 07:33:10;;;;;;;;;;;16.90;99.90;;;;;;4965695;28;19926;-73
2022/09/03 07:35:36;;;;;;;;;;;16.90;99.90;;;;;;4965900;28;20009;-75
2022/09/03 07:38:01;;;;;;;;;;;16.90;99.90;;;;;;4962998;28;19926;-74
2022/09/03 07:40:28;;;;;;;;;;;16.90;99.90;;;;;;4959417;28;20021;-75
2022/09/03 07:43:00;;;;;;;;;;;16.90;99.90;;;;;;4954163;28;19957;-75
2022/09/03 07:45:27;;;;;;;;;;;17.00;99.90;;;;;;4976573;28;19929;-75
2022/09/03 07:47:53;;;;;;;;;;;17.00;99.90;;;;;;4979784;28;19937;-75
2022/09/03 07:50:18;;;;;;;;;;;17.00;99.90;;;;;;4980934;28;19930;-75
2022/09/03 07:52:44;;;;;;;;;;;17.10;99.90;;;;;;4965623;28;19922;-76
2022/09/03 07:55:10;;;;;;;;;;;17.10;99.90;;;;;;4954114;28;20574;-76
2022/09/03 07:57:35;;;;;;;;;;;17.10;99.90;;;;;;4963465;28;20005;-76
2022/09/03 08:00:01;;;;;;;;;;;17.20;99.90;;;;;;4958778;28;19996;-76
2022/09/03 08:02:26;;;;;;;;;;;17.20;99.90;;;;;;4960090;28;20371;-76
2022/09/03 08:04:52;;;;;;;;;;;17.30;99.90;;;;;;4970043;28;19930;-76
2022/09/03 08:07:17;;;;;;;;;;;17.40;99.90;;;;;;4952665;28;19989;-76
2022/09/03 08:09:43;;;;;;;;;;;17.40;99.90;;;;;;4953395;28;19940;-76
2022/09/03 08:12:08;;;;;;;;;;;17.40;99.90;;;;;;4950552;28;19930;-75
2022/09/03 08:14:34;;;;;;;;;;;17.40;99.90;;;;;;4957629;28;20394;-75
2022/09/03 08:16:59;;;;;;;;;;;17.50;99.90;;;;;;4946476;28;19926;-75
2022/09/03 08:19:25;;;;;;;;;;;17.50;99.90;;;;;;4959868;28;20431;-75
2022/09/03 08:21:50;;;;;;;;;;;17.50;99.90;;;;;;4949219;28;20020;-76
2022/09/03 08:24:18;;;;;;;;;;;17.60;99.90;;;;;;4958122;28;19930;-76
2022/09/03 08:26:43;;;;;;;;;;;17.60;99.90;;;;;;4949342;28;20397;-77
2022/09/03 08:29:09;;;;;;;;;;;17.60;99.90;;;;;;4954164;28;19976;-75
2022/09/03 08:31:35;;;;;;;;;;;17.70;99.90;;;;;;4950089;28;20021;-74
2022/09/03 08:34:05;;;;;;;;;;;17.70;99.90;;;;;;4963110;28;19930;-74
2022/09/03 08:36:31;;;;;;;;;;;17.70;99.90;;;;;;4961578;28;19937;-74
2022/09/03 08:38:58;;;;;;;;;;;17.80;99.90;;;;;;4957281;28;19934;-73
2022/09/03 08:41:32;;;;;;;;;;;17.80;99.90;;;;;;4952185;28;19980;-73
2022/09/03 08:44:01;;;;;;;;;;;17.80;99.90;;;;;;4956560;28;19933;-71
2022/09/03 08:46:39;;;;;;;;;;;17.90;99.90;;;;;;4963528;28;19977;-71
2022/09/03 08:49:06;;;;;;;;;;;17.80;99.90;;;;;;4972086;28;19992;-71
2022/09/03 08:51:34;;;;;;;;;;;17.90;99.90;;;;;;4944585;28;19922;-71
2022/09/03 08:54:00;;;;;;;;;;;18.00;99.90;;;;;;4950365;28;19926;-71
2022/09/03 08:56:27;;;;;;;;;;;18.00;99.90;;;;;;4958707;28;20312;-71
2022/09/03 08:58:54;;;;;;;;;;;18.10;99.90;;;;;;4962805;28;19926;-71
2022/09/03 09:01:48;;;;;;;;;;;18.00;99.90;;;;;;4948217;28;19930;-71
2022/09/03 09:04:29;;;;;;;;;;;18.10;99.90;;;;;;4871213;28;20382;-71
2022/09/03 09:07:15;;;;;;;;;;;18.20;99.90;;;;;;4949350;28;19930;-71
2022/09/03 09:09:47;;;;;;;;;;;18.30;99.90;;;;;;4963872;28;19934;-71
2022/09/03 09:12:16;;;;;;;;;;;18.30;99.90;;;;;;4947171;28;20324;-71
2022/09/03 09:15:04;;;;;;;;;;;18.30;99.90;;;;;;4958182;28;20012;-71
2022/09/03 09:17:44;;;;;;;;;;;18.40;99.90;;;;;;4954184;28;20391;-72
2022/09/03 09:20:28;;;;;;;;;;;18.50;99.90;;;;;;4958594;28;19961;-71
2022/09/03 09:23:02;;;;;;;;;;;18.40;99.90;;;;;;4968740;28;20600;-71
2022/09/03 09:25:30;;;;;;;;;;;18.50;99.90;;;;;;4964178;28;19972;-71
2022/09/03 09:27:58;;;;;;;;;;;18.50;99.90;;;;;;4959624;28;19926;-71
2022/09/03 09:30:24;;;;;;;;;;;18.60;99.90;;;;;;4948902;28;20278;-71
2022/09/03 09:32:49;;;;;;;;;;;18.60;99.90;;;;;;4944944;28;19934;-71
2022/09/03 09:35:16;;;;;;;;;;;18.70;99.90;;;;;;4956789;28;20339;-71
2022/09/03 09:37:46;;;;;;;;;;;18.70;99.90;;;;;;4967579;28;20502;-71
2022/09/03 09:40:21;;;;;;;;;;;18.80;99.90;;;;;;4968059;28;19922;-72
2022/09/03 09:42:47;;;;;;;;;;;18.80;99.90;;;;;;4963898;28;20016;-72
2022/09/03 09:45:12;;;;;;;;;;;18.90;99.90;;;;;;4962921;28;20005;-74
2022/09/03 09:47:38;;;;;;;;;;;18.90;99.90;;;;;;4951170;28;19930;-72
2022/09/03 09:50:14;;;;;;;;;;;18.90;99.90;;;;;;4954895;28;19926;-72
2022/09/03 09:52:40;;;;;;;;;;;19.00;99.90;;;;;;4958509;28;20389;-72
2022/09/03 09:55:07;;;;;;;;;;;19.00;99.90;;;;;;4958286;28;19966;-73
2022/09/03 09:57:33;;;;;;;;;;;19.10;99.90;;;;;;4948058;28;19923;-73
2022/09/03 10:00:09;;;;;;;;;;;19.10;99.90;;;;;;4963626;28;19937;-72
2022/09/03 10:02:35;;;;;;;;;;;19.20;99.90;;;;;;4965377;28;19973;-73
2022/09/03 10:05:12;;;;;;;;;;;19.20;99.90;;;;;;4954653;28;20138;-73
2022/09/03 10:07:37;;;;;;;;;;;19.30;99.90;;;;;;4948026;28;19965;-73
2022/09/03 10:10:13;;;;;;;;;;;19.30;99.90;;;;;;4957216;28;19973;-73
2022/09/03 10:13:07;;;;;;;;;;;19.30;99.90;;;;;;4950250;28;19927;-75
2022/09/03 10:15:39;;;;;;;;;;;19.40;99.90;;;;;;4940173;28;20013;-76
2022/09/03 10:18:27;;;;;;;;;;;19.40;99.90;;;;;;4963823;28;20230;-74
2022/09/03 10:21:14;;;;;;;;;;;19.50;99.90;;;;;;4969116;28;19935;-78
2022/09/03 10:23:58;;;;;;;;;;;19.50;99.70;;;;;;4963146;28;19973;-77
2022/09/03 10:26:29;;;;;;;;;;;19.60;99.60;;;;;;4963104;28;19926;-77
2022/09/03 10:28:56;;;;;;;;;;;19.60;99.90;;;;;;4966639;28;20042;-77
2022/09/03 10:31:35;;;;;;;;;;;19.70;99.80;;;;;;4964663;28;19930;-76
2022/09/03 10:34:06;;;;;;;;;;;19.70;99.80;;;;;;4980940;28;19926;-77
2022/09/03 10:36:55;;;;;;;;;;;19.80;99.90;;;;;;4966265;28;19933;-77
2022/09/03 10:39:22;;;;;;;;;;;19.80;99.40;;;;;;4965675;28;19930;-76
2022/09/03 10:42:01;;;;;;;;;;;19.80;98.80;;;;;;4961905;28;19934;-77
2022/09/03 10:44:36;;;;;;;;;;;19.90;99.70;;;;;;4966845;28;19934;-77
2022/09/03 10:47:14;;;;;;;;;;;20.00;99.60;;;;;;4961961;28;20009;-77
2022/09/03 10:49:58;;;;;;;;;;;20.10;98.60;;;;;;4964384;28;19976;-77
2022/09/03 10:52:35;;;;;;;;;;;20.10;98.10;;;;;;4965732;28;20297;-77
2022/09/03 10:55:19;;;;;;;;;;;20.10;98.30;;;;;;4964862;28;19926;-77
2022/09/03 10:58:22;;;;;;;;;;;20.20;97.10;;;;;;4963455;28;19930;-77
2022/09/03 11:00:58;;;;;;;;;;;20.30;97.40;;;;;;4880170;29;19962;-76
2022/09/03 11:03:34;;;;;;;;;;;20.40;97.70;;;;;;4945114;28;20162;-76
2022/09/03 11:06:02;;;;;;;;;;;20.40;97.60;;;;;;4967451;28;19936;-78
2022/09/03 11:08:34;;;;;;;;;;;20.50;97.40;;;;;;4957982;28;20593;-77
2022/09/03 11:11:12;;;;;;;;;;;20.50;98.20;;;;;;4963644;28;20225;-79
2022/09/03 11:13:41;;;;;;;;;;;20.50;97.50;;;;;;4970679;28;20073;-78
2022/09/03 11:16:17;;;;;;;;;;;20.60;97.00;;;;;;4956090;28;19937;-79
2022/09/03 11:18:48;;;;;;;;;;;20.60;98.40;;;;;;4961787;28;19925;-78
2022/09/03 11:21:15;;;;;;;;;;;20.60;98.70;;;;;;4956115;28;19926;-79
2022/09/03 11:23:46;;;;;;;;;;;20.70;96.70;;;;;;4958933;28;19933;-78
2022/09/03 11:26:14;;;;;;;;;;;20.80;96.80;;;;;;4954392;28;19922;-78
2022/09/03 11:28:49;;;;;;;;;;;20.80;96.30;;;;;;4962608;28;19941;-78
2022/09/03 11:31:32;;;;;;;;;;;20.80;95.20;;;;;;4954631;28;20005;-78
2022/09/03 11:34:06;;;;;;;;;;;20.90;95.70;;;;;;4954801;28;19926;-78
2022/09/03 11:36:33;;;;;;;;;;;21.00;95.30;;;;;;4964593;28;19926;-79
2022/09/03 11:38:59;;;;;;;;;;;21.10;93.40;;;;;;4965602;28;20025;-82
2022/09/03 11:41:34;;;;;;;;;;;21.10;94.30;;;;;;4966390;28;20076;-79
2022/09/03 11:44:10;;;;;;;;;;;21.20;93.10;;;;;;4964882;28;20662;-80
2022/09/03 11:46:38;;;;;;;;;;;21.10;92.10;;;;;;4965040;28;19922;-81
2022/09/03 11:49:24;;;;;;;;;;;21.20;94.10;;;;;;4965530;28;19926;-80
2022/09/03 11:51:55;;;;;;;;;;;21.20;92.90;;;;;;4964838;28;19930;-81
2022/09/03 11:54:22;;;;;;;;;;;21.30;91.70;;;;;;4965051;28;19926;-79
2022/09/03 11:56:48;;;;;;;;;;;21.30;91.90;;;;;;4963924;28;19926;-79
2022/09/03 11:59:18;;;;;;;;;;;21.40;91.20;;;;;;4963603;28;19949;-79
2022/09/03 12:01:51;;;;;;;;;;;21.40;90.50;;;;;;4962463;28;19933;-77
2022/09/03 12:04:20;;;;;;;;;;;21.50;92.30;;;;;;4964972;28;20433;-79
2022/09/03 12:06:52;;;;;;;;;;;21.50;90.90;;;;;;4964281;28;20016;-79
2022/09/03 12:09:36;;;;;;;;;;;21.60;90.80;;;;;;4963773;28;20165;-79
2022/09/03 12:12:05;;;;;;;;;;;21.60;90.80;;;;;;4964904;28;19933;-79
2022/09/03 12:14:46;;;;;;;;;;;21.60;90.70;;;;;;4964369;28;19934;-78
2022/09/03 12:17:21;;;;;;;;;;;21.70;90.70;;;;;;4962529;28;19926;-79
2022/09/03 12:19:50;;;;;;;;;;;21.80;87.90;;;;;;4964497;28;20009;-79
2022/09/03 12:22:16;;;;;;;;;;;21.80;90.30;;;;;;4964863;28;20373;-79
2022/09/03 12:24:43;;;;;;;;;;;21.80;88.20;;;;;;4964138;28;20017;-78
2022/09/03 12:27:15;;;;;;;;;;;21.80;89.10;;;;;;4964216;28;20415;-79
2022/09/03 12:29:49;;;;;;;;;;;21.80;85.00;;;;;;4963838;28;20364;-78
2022/09/03 12:32:14;;;;;;;;;;;21.80;85.60;;;;;;4963748;28;20024;-79
2022/09/03 12:34:40;;;;;;;;;;;21.90;84.60;;;;;;4962484;28;20212;-79
2022/09/03 12:37:17;;;;;;;;;;;21.90;82.50;;;;;;4963275;28;19933;-79
2022/09/03 12:39:49;;;;;;;;;;;21.90;82.30;;;;;;4963656;28;19926;-79
2022/09/03 12:42:19;;;;;;;;;;;22.00;82.90;;;;;;4963862;28;20419;-79
2022/09/03 12:44:44;;;;;;;;;;;22.10;82.80;;;;;;4964675;28;19989;-81
2022/09/03 12:47:11;;;;;;;;;;;22.00;82.40;;;;;;4964084;28;20293;-81
2022/09/03 12:49:41;;;;;;;;;;;22.10;78.10;;;;;;4964689;28;19939;-81
2022/09/03 12:52:09;;;;;;;;;;;22.10;83.30;;;;;;4963129;28;19930;-80
2022/09/03 12:54:37;;;;;;;;;;;22.10;81.30;;;;;;4964827;28;19966;-79
2022/09/03 12:57:03;;;;;;;;;;;22.10;79.90;;;;;;4964913;28;19934;-78
2022/09/03 12:59:31;;;;;;;;;;;22.20;82.50;;;;;;4954338;28;19927;-77
2022/09/03 13:01:59;;;;;;;;;;;22.20;81.10;;;;;;4952819;28;19982;-77
2022/09/03 13:04:31;;;;;;;;;;;22.20;77.40;;;;;;4953553;28;19977;-79
2022/09/03 13:07:05;;;;;;;;;;;22.20;80.10;;;;;;4959635;28;20011;-80
2022/09/03 13:09:33;;;;;;;;;;;22.30;80.40;;;;;;4969611;28;19933;-80
2022/09/03 13:12:00;;;;;;;;;;;22.30;80.80;;;;;;4964127;28;19985;-80
2022/09/03 13:14:25;;;;;;;;;;;22.30;75.60;;;;;;4947709;28;19937;-80
2022/09/03 13:17:03;;;;;;;;;;;22.30;75.20;;;;;;4963108;28;20013;-80
2022/09/03 13:19:47;;;;;;;;;;;22.30;74.40;;;;;;4956697;28;20305;-84
2022/09/03 13:22:17;;;;;;;;;;;22.40;74.00;;;;;;4963881;28;19949;-82
2022/09/03 13:24:43;;;;;;;;;;;22.30;73.90;;;;;;4964588;28;19926;-83
2022/09/03 13:27:17;;;;;;;;;;;22.40;74.20;;;;;;4951319;28;20714;-82
2022/09/03 13:29:52;;;;;;;;;;;22.40;76.30;;;;;;4947569;28;19930;-79
2022/09/03 13:32:21;;;;;;;;;;;22.40;73.60;;;;;;4947276;28;19934;-81
2022/09/03 13:34:49;;;;;;;;;;;22.50;73.00;;;;;;4968207;28;20025;-81
2022/09/03 13:37:33;;;;;;;;;;;22.50;78.00;;;;;;4959612;28;20381;-81
2022/09/03 13:40:14;;;;;;;;;;;22.50;75.70;;;;;;4945179;28;19927;-80
2022/09/03 13:42:47;;;;;;;;;;;22.50;72.20;;;;;;4955074;28;19930;-79
2022/09/03 13:45:15;;;;;;;;;;;22.50;74.30;;;;;;4959366;28;19993;-78
2022/09/03 13:51:02;;;;;;;;;;;22.60;74.00;;;;;;4961976;28;19926;-75
2022/09/03 13:53:36;;;;;;;;;;;22.60;74.00;;;;;;4957192;28;19926;-74
2022/09/03 13:56:06;;;;;;;;;;;22.60;73.90;;;;;;4978209;28;19933;-72
2022/09/03 13:58:44;;;;;;;;;;;22.60;74.10;;;;;;4978038;28;20274;-75
2022/09/03 14:01:27;;;;;;;;;;;22.60;74.50;;;;;;4972866;28;19981;-73
2022/09/03 14:03:54;;;;;;;;;;;22.60;70.20;;;;;;4958231;28;19926;-74
2022/09/03 14:06:28;;;;;;;;;;;22.60;70.60;;;;;;4954103;28;19926;-77
2022/09/03 14:09:12;;;;;;;;;;;22.60;72.80;;;;;;4951418;28;19980;-76
2022/09/03 14:11:57;;;;;;;;;;;22.60;75.70;;;;;;4953852;28;19930;-77
2022/09/03 14:14:28;;;;;;;;;;;22.70;75.20;;;;;;4951500;28;19934;-75
2022/09/03 14:16:54;;;;;;;;;;;22.70;73.70;;;;;;4951501;28;19974;-77
2022/09/03 14:19:31;;;;;;;;;;;22.70;72.90;;;;;;4951265;28;20025;-75
2022/09/03 14:21:58;;;;;;;;;;;22.70;75.60;;;;;;4942809;28;19930;-75
2022/09/03 14:24:39;;;;;;;;;;;22.70;74.80;;;;;;4958989;28;20084;-80
2022/09/03 14:27:06;;;;;;;;;;;22.70;73.80;;;;;;4981114;28;19922;-77
2022/09/03 14:29:32;;;;;;;;;;;22.60;69.50;;;;;;4965139;28;19937;-80
2022/09/03 14:31:58;;;;;;;;;;;22.60;72.90;;;;;;4961432;28;20013;-80
2022/09/03 14:34:42;;;;;;;;;;;22.60;72.30;;;;;;4962858;28;20012;-79